Time;durP1;ratioP1;P1;durP2;ratioP2;P2;SDS_P1;SDS_P2;PMS_P1;PMS_P2;Temp;Humidity;BMP_temperature;BMP_pressure;BME280_temperature;BME280_humidity;BME280_pressure;Samples;Min_cycle;Max_cycle;Signal;HPM_P1;HPM_P2
2022/12/21 00:01:33;;;;;;;31.50;14.45;;;9.60;99.90;;;;;;5112642;28;20043;-88
2022/12/21 00:04:00;;;;;;;35.08;14.02;;;9.60;99.90;;;;;;5094612;28;20086;-89
2022/12/21 00:06:28;;;;;;;31.33;13.95;;;9.60;99.90;;;;;;5095089;28;20043;-88
2022/12/21 00:08:56;;;;;;;29.55;14.52;;;9.50;99.90;;;;;;5080585;27;20114;-88
2022/12/21 00:11:23;;;;;;;35.35;15.38;;;9.50;99.90;;;;;;5114739;27;20047;-88
2022/12/21 00:13:50;;;;;;;26.60;13.40;;;9.50;99.90;;;;;;5114643;27;20420;-88
2022/12/21 00:16:18;;;;;;;34.83;15.65;;;9.50;99.90;;;;;;5132683;27;20035;-89
2022/12/21 00:18:45;;;;;;;34.63;15.00;;;9.50;99.90;;;;;;5114826;27;20119;-89
2022/12/21 00:21:13;;;;;;;35.63;15.32;;;9.50;99.90;;;;;;5114648;27;20039;-88
2022/12/21 00:23:40;;;;;;;36.47;15.43;;;9.40;99.90;;;;;;5095179;28;20055;-89
2022/12/21 00:26:07;;;;;;;32.20;15.60;;;9.40;99.90;;;;;;5095096;27;20115;-89
2022/12/21 00:28:33;;;;;;;36.00;15.80;;;9.40;99.90;;;;;;5119083;27;20042;-89
2022/12/21 00:31:12;;;;;;;33.20;15.43;;;9.40;99.90;;;;;;5123253;27;20519;-88
2022/12/21 00:33:38;;;;;;;34.15;15.32;;;9.40;99.90;;;;;;5141632;27;20552;-89
2022/12/21 00:36:06;;;;;;;35.58;15.15;;;9.30;99.90;;;;;;5124617;27;20083;-89
2022/12/21 00:38:32;;;;;;;35.90;15.20;;;9.30;99.90;;;;;;5120407;27;20032;-89
2022/12/21 00:41:02;;;;;;;35.20;15.70;;;9.30;99.90;;;;;;5123773;27;20034;-89
2022/12/21 00:43:29;;;;;;;32.70;16.23;;;9.30;99.90;;;;;;5120095;27;20043;-89
2022/12/21 00:45:54;;;;;;;35.90;15.18;;;9.20;99.90;;;;;;5124416;27;20085;-89
2022/12/21 00:48:20;;;;;;;40.85;17.20;;;9.20;99.90;;;;;;5124752;27;20074;-89
2022/12/21 00:50:47;;;;;;;40.05;16.30;;;9.20;99.90;;;;;;5122115;27;20103;-89
2022/12/21 00:53:14;;;;;;;37.78;17.33;;;9.20;99.90;;;;;;5122665;27;20035;-88
2022/12/21 00:55:40;;;;;;;38.42;15.52;;;9.20;99.90;;;;;;5122437;27;20035;-89
2022/12/21 00:58:06;;;;;;;35.65;16.40;;;9.30;99.90;;;;;;5120000;27;20453;-89
2022/12/21 01:00:32;;;;;;;43.65;17.88;;;9.30;99.90;;;;;;5103963;27;20035;-89
2022/12/21 01:02:57;;;;;;;35.25;16.65;;;9.30;99.90;;;;;;5120416;27;20122;-89
2022/12/21 01:05:23;;;;;;;36.38;16.52;;;9.20;99.90;;;;;;5120704;27;20042;-89
2022/12/21 01:07:48;;;;;;;40.63;17.02;;;9.20;99.90;;;;;;5122634;27;20053;-90
2022/12/21 01:10:14;;;;;;;39.10;18.33;;;9.20;99.90;;;;;;5122672;27;20426;-89
2022/12/21 01:12:40;;;;;;;42.58;17.63;;;9.20;99.90;;;;;;5106058;27;20035;-89
2022/12/21 01:15:06;;;;;;;44.92;17.65;;;9.20;99.90;;;;;;5121886;27;20546;-89
2022/12/21 01:17:33;;;;;;;41.17;17.38;;;9.20;99.90;;;;;;5122904;27;20035;-89
2022/12/21 01:19:59;;;;;;;41.38;16.95;;;9.20;99.90;;;;;;5121457;27;20661;-89
2022/12/21 01:22:24;;;;;;;39.97;16.60;;;9.20;99.90;;;;;;5121200;27;20034;-88
2022/12/21 01:24:50;;;;;;;47.47;17.05;;;9.20;99.90;;;;;;5122931;27;20096;-89
2022/12/21 01:27:15;;;;;;;43.13;16.95;;;9.20;99.90;;;;;;5119290;27;20489;-89
2022/12/21 01:29:41;;;;;;;52.90;19.00;;;9.20;99.90;;;;;;5121973;27;20050;-89
2022/12/21 01:32:06;;;;;;;42.83;17.45;;;9.20;99.90;;;;;;5123897;27;20061;-88
2022/12/21 01:34:32;;;;;;;44.85;18.38;;;9.20;99.90;;;;;;5107939;27;20079;-88
2022/12/21 01:36:58;;;;;;;42.22;17.50;;;9.20;99.90;;;;;;5121610;27;20118;-89
2022/12/21 01:39:23;;;;;;;41.33;16.40;;;9.20;99.90;;;;;;5098407;28;20053;-89
2022/12/21 01:41:49;;;;;;;40.75;16.00;;;9.20;99.90;;;;;;5092696;28;20043;-88
2022/12/21 01:44:49;;;;;;;40.63;16.88;;;9.10;99.90;;;;;;5093016;28;20048;-88
2022/12/21 01:47:20;;;;;;;40.15;15.65;;;9.10;99.90;;;;;;5104525;27;20047;-89
2022/12/21 01:49:52;;;;;;;42.00;16.80;;;9.10;99.90;;;;;;5113074;27;20051;-88
2022/12/21 01:52:18;;;;;;;34.92;15.75;;;9.10;99.90;;;;;;5104472;28;20036;-88
2022/12/21 01:54:56;;;;;;;43.00;18.67;;;9.10;99.90;;;;;;5092145;28;20027;-88
2022/12/21 01:57:23;;;;;;;39.75;15.45;;;9.00;99.90;;;;;;5091724;28;20396;-88
2022/12/21 01:59:54;;;;;;;34.83;15.95;;;9.00;99.90;;;;;;5091993;28;20104;-89
2022/12/21 02:02:25;;;;;;;44.67;15.25;;;9.00;99.90;;;;;;5092297;28;20027;-88
2022/12/21 02:04:52;;;;;;;32.75;14.38;;;9.00;99.90;;;;;;5100216;28;20424;-88
2022/12/21 02:07:20;;;;;;;37.92;16.23;;;9.00;99.90;;;;;;5112745;28;20069;-89
2022/12/21 02:09:46;;;;;;;39.35;16.73;;;9.00;99.90;;;;;;5106189;28;20450;-89
2022/12/21 02:12:15;;;;;;;34.80;14.75;;;8.90;99.90;;;;;;5091173;28;20047;-88
2022/12/21 02:14:44;;;;;;;35.63;15.25;;;8.90;99.90;;;;;;5110850;28;20061;-89
2022/12/21 02:17:48;;;;;;;39.00;16.10;;;8.90;99.90;;;;;;5111565;28;20043;-88
2022/12/21 02:20:41;;;;;;;36.10;15.57;;;8.90;99.90;;;;;;5112559;28;20053;-88
2022/12/21 02:23:10;;;;;;;36.85;17.63;;;8.90;99.90;;;;;;5097253;28;20050;-88
2022/12/21 02:26:11;;;;;;;42.83;18.55;;;8.90;99.90;;;;;;5116263;27;20071;-88
2022/12/21 02:28:55;;;;;;;36.28;19.42;;;8.90;99.90;;;;;;5079694;28;20127;-88
2022/12/21 02:31:42;;;;;;;40.88;15.90;;;8.90;99.90;;;;;;5114117;28;20078;-88
2022/12/21 02:34:43;;;;;;;36.67;15.27;;;8.90;99.90;;;;;;5104096;27;20089;-88
2022/12/21 02:37:31;;;;;;;33.95;14.98;;;8.90;99.90;;;;;;5116308;27;20055;-88
2022/12/21 02:40:17;;;;;;;31.10;15.05;;;8.90;99.90;;;;;;5115883;27;20672;-88
2022/12/21 02:45:54;;;;;;;36.17;13.83;;;8.80;99.90;;;;;;5096102;28;20047;-87
2022/12/21 02:48:49;;;;;;;39.33;16.60;;;8.80;99.90;;;;;;5112580;28;20664;-88
2022/12/21 02:51:21;;;;;;;38.20;15.10;;;8.80;99.90;;;;;;5095667;28;20431;-88
2022/12/21 02:53:48;;;;;;;34.20;13.70;;;8.80;99.90;;;;;;5094604;28;20097;-88
2022/12/21 02:56:18;;;;;;;34.78;13.15;;;8.80;99.90;;;;;;5113501;28;20289;-88
2022/12/21 02:58:43;;;;;;;32.08;13.77;;;8.80;99.90;;;;;;5098735;28;20040;-88
2022/12/21 03:01:17;;;;;;;33.47;14.02;;;8.70;99.90;;;;;;5114640;27;20054;-88
2022/12/21 03:04:01;;;;;;;35.75;14.68;;;8.70;99.90;;;;;;5113859;27;20050;-88
2022/12/21 03:06:44;;;;;;;34.88;13.43;;;8.70;99.90;;;;;;5093694;27;20051;-88
2022/12/21 03:09:21;;;;;;;32.58;14.43;;;8.60;99.90;;;;;;5116068;27;20054;-89
2022/12/21 03:11:58;;;;;;;32.28;13.30;;;8.60;99.90;;;;;;5115443;27;20053;-88
2022/12/21 03:14:23;;;;;;;32.45;13.95;;;8.50;99.90;;;;;;5133753;27;20043;-88
2022/12/21 03:16:52;;;;;;;32.20;12.15;;;8.50;99.90;;;;;;5111429;28;20044;-88
2022/12/21 03:19:45;;;;;;;28.58;12.13;;;8.50;99.90;;;;;;5111584;28;20036;-88
2022/12/21 03:22:25;;;;;;;32.47;12.27;;;8.40;99.90;;;;;;5089065;28;20127;-88
2022/12/21 03:25:28;;;;;;;29.08;11.50;;;8.40;99.90;;;;;;5095149;28;20073;-89
2022/12/21 03:28:00;;;;;;;35.07;11.07;;;8.40;99.90;;;;;;5092624;28;20079;-88
2022/12/21 03:30:28;;;;;;;31.63;12.40;;;8.40;99.90;;;;;;5115179;27;20344;-88
2022/12/21 03:33:02;;;;;;;37.72;13.98;;;8.40;99.90;;;;;;5115539;27;20281;-88
2022/12/21 03:35:31;;;;;;;33.58;12.50;;;8.40;99.90;;;;;;5105249;27;20042;-88
2022/12/21 03:38:01;;;;;;;38.75;14.48;;;8.40;99.90;;;;;;5115508;27;20100;-88
2022/12/21 03:40:29;;;;;;;45.55;15.20;;;8.40;99.90;;;;;;5097681;27;20063;-88
2022/12/21 03:43:00;;;;;;;45.00;15.35;;;8.40;99.90;;;;;;5098010;27;20054;-88
2022/12/21 03:45:35;;;;;;;36.88;14.52;;;8.40;99.90;;;;;;5114833;27;20038;-88
2022/12/21 03:48:12;;;;;;;34.75;14.38;;;8.40;99.90;;;;;;5115165;27;20091;-89
2022/12/21 03:50:42;;;;;;;36.65;14.20;;;8.40;99.90;;;;;;5113738;27;20126;-88
2022/12/21 03:53:32;;;;;;;36.92;14.65;;;8.40;99.90;;;;;;5107805;27;20039;-88
2022/12/21 03:56:02;;;;;;;40.05;13.32;;;8.40;99.90;;;;;;5115355;27;20092;-88
2022/12/21 03:58:28;;;;;;;33.72;13.50;;;8.40;99.90;;;;;;5101878;28;20024;-88
2022/12/21 04:01:19;;;;;;;32.72;12.25;;;8.40;99.90;;;;;;5112623;28;20054;-88
2022/12/21 04:03:50;;;;;;;34.22;13.68;;;8.50;99.90;;;;;;5085869;27;20516;-88
2022/12/21 04:06:20;;;;;;;41.83;14.63;;;8.50;99.90;;;;;;5097159;27;20126;-88
2022/12/21 04:08:47;;;;;;;42.40;15.98;;;8.50;99.90;;;;;;5115112;27;20043;-88
2022/12/21 04:13:59;;;;;;;38.10;15.10;;;8.50;99.90;;;;;;5094187;28;20079;-88
2022/12/21 04:16:25;;;;;;;42.05;14.30;;;8.50;99.90;;;;;;5121307;27;20031;-88
2022/12/21 04:21:35;;;;;;;35.75;14.57;;;8.50;99.90;;;;;;5100739;27;20043;-88
2022/12/21 04:29:28;;;;;;;38.88;14.13;;;8.60;99.90;;;;;;5113053;27;20071;-88
2022/12/21 04:31:54;;;;;;;44.65;15.77;;;8.60;99.90;;;;;;5114878;27;20075;-88
2022/12/21 04:34:20;;;;;;;46.00;16.05;;;8.60;99.90;;;;;;5124846;27;20405;-88
2022/12/21 04:39:29;;;;;;;36.60;14.77;;;8.60;99.90;;;;;;5093621;28;20043;-88
2022/12/21 04:41:55;;;;;;;45.70;15.23;;;8.60;99.90;;;;;;5093140;28;20040;-88
2022/12/21 04:44:20;;;;;;;38.22;15.45;;;8.50;99.90;;;;;;5093525;28;20067;-88
2022/12/21 04:46:46;;;;;;;48.70;16.48;;;8.50;99.90;;;;;;5098255;27;20584;-88
2022/12/21 04:49:12;;;;;;;44.63;16.05;;;8.50;99.90;;;;;;5114575;27;20043;-88
2022/12/21 04:51:37;;;;;;;43.33;15.75;;;8.50;99.90;;;;;;5114282;27;20055;-88
2022/12/21 04:54:03;;;;;;;48.60;16.95;;;8.50;99.90;;;;;;5101795;28;20042;-88
2022/12/21 04:56:29;;;;;;;40.30;15.55;;;8.50;99.90;;;;;;5094261;28;20035;-88
2022/12/21 04:58:55;;;;;;;48.50;17.70;;;8.50;99.90;;;;;;5094197;27;20074;-88
2022/12/21 05:01:21;;;;;;;44.85;17.30;;;8.50;99.90;;;;;;5113603;27;20050;-88
2022/12/21 05:03:48;;;;;;;41.70;15.45;;;8.50;99.90;;;;;;5106833;28;20043;-88
2022/12/21 05:06:15;;;;;;;36.58;17.25;;;8.50;99.90;;;;;;5111560;27;20047;-88
2022/12/21 05:08:42;;;;;;;43.38;16.00;;;8.60;99.90;;;;;;5114072;27;20035;-88
2022/12/21 05:11:13;;;;;;;40.67;15.93;;;8.50;99.90;;;;;;5094233;28;20043;-89
2022/12/21 05:13:40;;;;;;;41.47;15.70;;;8.50;99.90;;;;;;5093452;28;20496;-88
2022/12/21 05:16:11;;;;;;;49.58;19.08;;;8.60;99.90;;;;;;5110400;28;20080;-88
2022/12/21 05:18:37;;;;;;;43.28;15.43;;;8.60;99.90;;;;;;5093535;28;20051;-88
2022/12/21 05:21:03;;;;;;;38.00;15.35;;;8.60;99.90;;;;;;5111273;28;20416;-88
2022/12/21 05:23:29;;;;;;;42.20;16.35;;;8.60;99.90;;;;;;5110522;27;20043;-88
2022/12/21 05:25:54;;;;;;;46.53;16.60;;;8.60;99.90;;;;;;5132017;27;20035;-88
2022/12/21 05:28:20;;;;;;;44.83;16.33;;;8.50;99.90;;;;;;5088997;28;20035;-89
2022/12/21 05:30:45;;;;;;;44.10;17.00;;;8.50;99.90;;;;;;5093187;28;20079;-89
2022/12/21 05:33:11;;;;;;;40.83;15.18;;;8.50;99.90;;;;;;5093521;28;20050;-89
2022/12/21 05:35:40;;;;;;;48.35;18.92;;;8.60;99.90;;;;;;5092901;28;20062;-89
2022/12/21 05:38:07;;;;;;;46.92;17.98;;;8.60;99.90;;;;;;5093268;28;20040;-88
2022/12/21 05:40:33;;;;;;;43.42;16.65;;;8.60;99.90;;;;;;5093973;27;20043;-88
2022/12/21 05:43:00;;;;;;;45.92;17.27;;;8.60;99.90;;;;;;5112763;27;20127;-88
2022/12/21 05:45:25;;;;;;;41.75;16.73;;;8.60;99.90;;;;;;5112999;27;20168;-88
2022/12/21 05:47:51;;;;;;;47.08;18.48;;;8.60;99.90;;;;;;5112548;27;20504;-88
2022/12/21 05:50:17;;;;;;;51.17;19.00;;;8.60;99.90;;;;;;5113143;27;20055;-88
2022/12/21 05:52:42;;;;;;;51.83;20.25;;;8.60;99.90;;;;;;5112619;27;20102;-88
2022/12/21 05:55:08;;;;;;;51.70;19.45;;;8.60;99.90;;;;;;5102481;28;20031;-88
2022/12/21 05:57:34;;;;;;;45.85;17.85;;;8.60;99.90;;;;;;5109717;28;20046;-88
2022/12/21 05:59:59;;;;;;;62.42;21.60;;;8.60;99.90;;;;;;5092169;28;20035;-88
2022/12/21 06:02:25;;;;;;;46.40;18.67;;;8.60;99.90;;;;;;5109713;28;20035;-88
2022/12/21 06:04:50;;;;;;;52.40;18.48;;;8.70;99.90;;;;;;5112564;28;20651;-88
2022/12/21 06:07:16;;;;;;;52.33;20.27;;;8.60;99.90;;;;;;5095352;28;20063;-88
2022/12/21 06:09:41;;;;;;;51.00;17.92;;;8.60;99.90;;;;;;5093026;28;20035;-88
2022/12/21 06:12:07;;;;;;;46.17;18.65;;;8.60;99.90;;;;;;5091927;28;20455;-89
2022/12/21 06:14:33;;;;;;;49.33;18.45;;;8.60;99.90;;;;;;5092634;28;20153;-89
2022/12/21 06:16:58;;;;;;;53.67;18.70;;;8.60;99.90;;;;;;5093233;28;20036;-88
2022/12/21 06:19:24;;;;;;;59.72;19.23;;;8.60;99.90;;;;;;5091849;28;20428;-89
2022/12/21 06:21:49;;;;;;;49.50;17.90;;;8.60;99.90;;;;;;5092209;28;20117;-89
2022/12/21 06:24:15;;;;;;;55.53;19.30;;;8.60;99.90;;;;;;5091044;28;20061;-89
2022/12/21 06:26:40;;;;;;;55.35;18.67;;;8.60;99.90;;;;;;5092232;28;20061;-88
2022/12/21 06:29:06;;;;;;;55.50;20.90;;;8.60;99.90;;;;;;5110184;28;20405;-88
2022/12/21 06:31:32;;;;;;;64.60;21.92;;;8.60;99.90;;;;;;5099549;28;20035;-88
2022/12/21 06:33:57;;;;;;;59.47;19.70;;;8.60;99.90;;;;;;5113196;28;20045;-89
2022/12/21 06:36:23;;;;;;;61.53;20.30;;;8.60;99.90;;;;;;5109810;28;20102;-88
2022/12/21 06:38:49;;;;;;;58.10;19.63;;;8.60;99.90;;;;;;5086532;28;20047;-89
2022/12/21 06:41:16;;;;;;;61.72;21.90;;;8.60;99.90;;;;;;5091891;28;20412;-89
2022/12/21 06:43:43;;;;;;;55.47;20.63;;;8.60;99.90;;;;;;5091604;28;20093;-89
2022/12/21 06:46:11;;;;;;;62.35;20.48;;;8.60;99.90;;;;;;5092388;28;20039;-89
2022/12/21 06:48:37;;;;;;;66.18;20.08;;;8.60;99.90;;;;;;5092571;28;20520;-89
2022/12/21 06:51:07;;;;;;;57.58;20.30;;;8.60;99.90;;;;;;5092362;28;20046;-89
2022/12/21 06:53:35;;;;;;;55.13;20.38;;;8.60;99.90;;;;;;5092241;28;20081;-89
2022/12/21 06:56:03;;;;;;;56.30;20.17;;;8.60;99.90;;;;;;5097528;28;20050;-89
2022/12/21 06:58:30;;;;;;;55.80;19.88;;;8.50;99.90;;;;;;5096054;28;20046;-89
2022/12/21 07:00:56;;;;;;;48.40;20.65;;;8.50;99.90;;;;;;5092219;28;20058;-89
2022/12/21 07:03:22;;;;;;;56.83;20.38;;;8.50;99.90;;;;;;5120033;28;20488;-89
2022/12/21 07:05:49;;;;;;;53.58;19.85;;;8.50;99.90;;;;;;5130871;28;20075;-89
2022/12/21 07:08:16;;;;;;;59.92;20.30;;;8.50;99.90;;;;;;5130281;28;20039;-89
2022/12/21 07:10:41;;;;;;;68.57;22.88;;;8.50;99.90;;;;;;5111751;27;20043;-89
2022/12/21 07:13:07;;;;;;;58.67;21.55;;;8.50;99.90;;;;;;5115703;27;20139;-89
2022/12/21 07:15:33;;;;;;;56.30;20.05;;;8.50;99.90;;;;;;5101615;28;20476;-90
2022/12/21 07:17:59;;;;;;;63.55;22.10;;;8.50;99.90;;;;;;5094795;28;20057;-89
2022/12/21 07:20:24;;;;;;;58.22;21.25;;;8.50;99.90;;;;;;5112809;28;20042;-89
2022/12/21 07:22:50;;;;;;;63.50;21.77;;;8.50;99.90;;;;;;5101750;27;20054;-89
2022/12/21 07:25:15;;;;;;;68.20;22.70;;;8.50;99.90;;;;;;5114981;27;20117;-89
2022/12/21 07:27:41;;;;;;;64.93;22.45;;;8.50;99.90;;;;;;5115469;27;20122;-89
2022/12/21 07:30:07;;;;;;;69.63;22.67;;;8.50;99.90;;;;;;5097483;27;20043;-89
2022/12/21 07:32:33;;;;;;;78.50;22.40;;;8.50;99.90;;;;;;5112798;28;20043;-89
2022/12/21 07:34:59;;;;;;;79.18;20.80;;;8.50;99.90;;;;;;5101188;27;20063;-89
2022/12/21 07:37:24;;;;;;;71.30;21.70;;;8.50;99.90;;;;;;5115154;27;20120;-89
2022/12/21 07:39:50;;;;;;;79.22;22.13;;;8.50;99.90;;;;;;5093635;28;20523;-89
2022/12/21 07:42:15;;;;;;;68.97;22.30;;;8.40;99.90;;;;;;5102026;28;20092;-89
2022/12/21 07:44:41;;;;;;;59.35;22.25;;;8.40;99.90;;;;;;5112236;28;20031;-90
2022/12/21 07:47:06;;;;;;;56.92;20.88;;;8.40;99.90;;;;;;5100153;27;20480;-89
2022/12/21 07:49:34;;;;;;;47.08;18.52;;;8.40;99.90;;;;;;5096183;28;20031;-89
2022/12/21 07:51:59;;;;;;;52.67;19.67;;;8.40;99.90;;;;;;5112758;28;20054;-89
2022/12/21 07:54:25;;;;;;;47.85;17.98;;;8.40;99.90;;;;;;5093551;28;20405;-89
2022/12/21 07:56:51;;;;;;;48.95;19.27;;;8.30;99.90;;;;;;5094766;28;20039;-89
2022/12/21 07:59:17;;;;;;;52.13;19.27;;;8.30;99.90;;;;;;5093905;28;20047;-89
2022/12/21 08:01:42;;;;;;;50.25;18.92;;;8.30;99.90;;;;;;5106622;27;20043;-89
2022/12/21 08:04:09;;;;;;;56.88;20.67;;;8.30;99.90;;;;;;5113967;27;20145;-90
2022/12/21 08:06:34;;;;;;;54.75;20.95;;;8.30;99.90;;;;;;5093083;28;20109;-90
2022/12/21 08:09:00;;;;;;;59.03;19.40;;;8.30;99.90;;;;;;5093889;28;20079;-89
2022/12/21 08:11:28;;;;;;;57.03;21.10;;;8.30;99.90;;;;;;5093565;28;20040;-89
2022/12/21 08:13:54;;;;;;;54.08;20.65;;;8.40;99.90;;;;;;5093414;28;20436;-89
2022/12/21 08:16:20;;;;;;;55.67;19.05;;;8.40;99.90;;;;;;5112255;28;20043;-89
2022/12/21 08:18:47;;;;;;;52.97;20.45;;;8.30;99.90;;;;;;5093583;28;20039;-89
2022/12/21 08:21:13;;;;;;;56.80;20.55;;;8.40;99.90;;;;;;5092741;28;20066;-89
2022/12/21 08:23:39;;;;;;;53.97;20.65;;;8.40;99.90;;;;;;5092840;28;20389;-89
2022/12/21 08:26:07;;;;;;;62.60;20.48;;;8.40;99.90;;;;;;5128942;27;20507;-89
2022/12/21 08:28:33;;;;;;;57.28;20.08;;;8.30;99.90;;;;;;5121060;27;20397;-89
2022/12/21 08:31:01;;;;;;;58.55;19.02;;;8.40;99.90;;;;;;5125696;27;20045;-88
2022/12/21 08:33:27;;;;;;;53.00;20.02;;;8.30;99.90;;;;;;5113974;27;20039;-88
2022/12/21 08:35:52;;;;;;;63.72;20.08;;;8.40;99.90;;;;;;5111665;27;20039;-89
2022/12/21 08:38:18;;;;;;;52.75;18.85;;;8.30;99.90;;;;;;5125652;27;20056;-89
2022/12/21 08:40:44;;;;;;;49.13;18.38;;;8.30;99.90;;;;;;5113399;27;20043;-89
2022/12/21 08:43:10;;;;;;;48.65;18.05;;;8.20;99.90;;;;;;5097990;28;20047;-89
2022/12/21 08:45:36;;;;;;;46.05;17.45;;;8.20;99.90;;;;;;5093162;28;20054;-89
2022/12/21 08:48:01;;;;;;;52.60;19.15;;;8.20;99.90;;;;;;5093631;28;20047;-88
2022/12/21 08:50:27;;;;;;;48.65;17.13;;;8.20;99.90;;;;;;5125558;27;20046;-89
2022/12/21 08:52:53;;;;;;;54.63;21.17;;;8.20;99.90;;;;;;5113065;27;20515;-90
2022/12/21 08:55:19;;;;;;;48.03;18.95;;;8.20;99.90;;;;;;5116837;27;20035;-89
2022/12/21 08:57:44;;;;;;;54.63;19.83;;;8.20;99.90;;;;;;5141006;27;21034;-89
2022/12/21 09:00:11;;;;;;;54.83;19.73;;;8.20;99.90;;;;;;5123749;27;20035;-89
2022/12/21 09:02:37;;;;;;;55.65;20.27;;;8.20;99.90;;;;;;5120537;27;20039;-89
2022/12/21 09:05:03;;;;;;;60.28;21.13;;;8.20;99.90;;;;;;5123779;27;20102;-89
2022/12/21 09:07:29;;;;;;;61.05;21.10;;;8.20;99.90;;;;;;5121021;27;20042;-89
2022/12/21 09:09:55;;;;;;;48.63;17.33;;;8.20;99.90;;;;;;5112198;27;20046;-89
2022/12/21 09:12:20;;;;;;;46.72;18.63;;;8.20;99.90;;;;;;5132175;27;20038;-89
2022/12/21 09:14:46;;;;;;;51.38;19.52;;;8.20;99.90;;;;;;5080747;28;20481;-88
2022/12/21 09:17:11;;;;;;;49.95;18.63;;;8.20;99.90;;;;;;5093308;27;20043;-89
2022/12/21 09:19:37;;;;;;;45.53;17.48;;;8.20;99.90;;;;;;5112670;27;20086;-89
2022/12/21 09:22:03;;;;;;;45.85;18.13;;;8.20;99.90;;;;;;5112179;27;20412;-89
2022/12/21 09:24:28;;;;;;;42.67;16.92;;;8.30;99.90;;;;;;5092681;28;20040;-88
2022/12/21 09:26:54;;;;;;;47.28;18.33;;;8.30;99.90;;;;;;5092971;28;20133;-88
2022/12/21 09:29:22;;;;;;;44.92;15.95;;;8.30;99.90;;;;;;5106922;27;20045;-89
2022/12/21 09:31:50;;;;;;;44.92;18.50;;;8.30;99.90;;;;;;5112536;27;20043;-89
2022/12/21 09:34:16;;;;;;;36.95;15.02;;;8.30;99.90;;;;;;5106353;28;20512;-90
2022/12/21 09:36:42;;;;;;;40.97;17.38;;;8.30;99.90;;;;;;5110364;28;20540;-89
2022/12/21 09:39:07;;;;;;;41.92;17.40;;;8.30;99.90;;;;;;5110027;28;20116;-89
2022/12/21 09:41:57;;;;;;;45.42;19.35;;;8.30;99.90;;;;;;5099884;28;20051;-89
2022/12/21 09:44:45;;;;;;;41.83;18.02;;;8.30;99.90;;;;;;5093724;28;20043;-89
2022/12/21 09:47:40;;;;;;;40.35;16.80;;;8.30;99.90;;;;;;5097852;28;20053;-89
2022/12/21 09:50:19;;;;;;;37.80;17.20;;;8.30;99.90;;;;;;5056545;28;20085;-89
2022/12/21 09:52:50;;;;;;;44.80;18.95;;;8.30;99.90;;;;;;5091606;28;20489;-89
2022/12/21 09:55:21;;;;;;;39.35;18.83;;;8.40;99.90;;;;;;5108661;28;20400;-90
2022/12/21 09:57:51;;;;;;;40.47;17.30;;;8.40;99.90;;;;;;5090185;28;20100;-89
2022/12/21 10:00:19;;;;;;;42.47;17.42;;;8.40;99.90;;;;;;5102842;27;20503;-89
2022/12/21 10:03:12;;;;;;;42.53;17.50;;;8.40;99.90;;;;;;5109243;28;20070;-89
2022/12/21 10:05:49;;;;;;;38.20;16.58;;;8.40;99.90;;;;;;5116511;28;20052;-90
2022/12/21 10:08:15;;;;;;;43.53;17.85;;;8.40;99.90;;;;;;5110368;28;20085;-89
2022/12/21 10:10:45;;;;;;;41.40;18.92;;;8.40;99.90;;;;;;5091731;28;20702;-90
2022/12/21 10:13:37;;;;;;;39.67;16.63;;;8.40;99.90;;;;;;5104255;28;20069;-89
2022/12/21 10:16:18;;;;;;;37.38;15.98;;;8.50;99.90;;;;;;5112809;28;20091;-89
2022/12/21 10:19:07;;;;;;;36.28;15.45;;;8.40;99.90;;;;;;5094209;28;20035;-89
2022/12/21 10:21:41;;;;;;;40.53;17.45;;;8.40;99.90;;;;;;5090995;28;20394;-90
2022/12/21 10:24:20;;;;;;;42.33;17.52;;;8.50;99.90;;;;;;5099736;28;20059;-89
2022/12/21 10:26:51;;;;;;;47.92;19.33;;;8.50;99.90;;;;;;5092390;28;20071;-90
2022/12/21 10:29:20;;;;;;;37.40;15.68;;;8.50;99.90;;;;;;5106296;28;20544;-90
2022/12/21 10:31:47;;;;;;;45.42;18.55;;;8.50;99.90;;;;;;5112060;28;20046;-90
2022/12/21 10:34:24;;;;;;;40.45;17.10;;;8.50;99.90;;;;;;5111301;28;20486;-89
2022/12/21 10:36:55;;;;;;;39.63;16.30;;;8.50;99.90;;;;;;5129615;28;20054;-89
2022/12/21 10:39:20;;;;;;;36.72;15.93;;;8.60;99.90;;;;;;5112407;28;20163;-90
2022/12/21 10:42:04;;;;;;;37.72;16.48;;;8.60;99.90;;;;;;5128827;28;20122;-89
2022/12/21 10:44:30;;;;;;;40.95;17.35;;;8.60;99.90;;;;;;5112516;27;20485;-90
2022/12/21 10:46:56;;;;;;;41.00;17.13;;;8.60;99.90;;;;;;5134542;27;20122;-89
2022/12/21 10:49:33;;;;;;;42.95;17.83;;;8.60;99.90;;;;;;5133633;27;20039;-89
2022/12/21 10:52:19;;;;;;;38.70;15.70;;;8.60;99.90;;;;;;5115997;27;20035;-90
2022/12/21 10:54:48;;;;;;;35.20;15.93;;;8.60;99.90;;;;;;5112501;28;20442;-90
2022/12/21 10:57:14;;;;;;;45.65;16.98;;;8.70;99.90;;;;;;5129636;27;20043;-89
2022/12/21 10:59:40;;;;;;;38.40;16.45;;;8.80;99.90;;;;;;5114569;27;20043;-90
2022/12/21 11:02:09;;;;;;;47.17;17.40;;;8.80;99.90;;;;;;5104257;28;20500;-90
2022/12/21 11:04:35;;;;;;;44.88;17.63;;;8.90;99.90;;;;;;5093765;28;20036;-89
2022/12/21 11:07:21;;;;;;;39.53;16.35;;;9.00;99.90;;;;;;5117103;27;20503;-89
2022/12/21 11:09:58;;;;;;;39.28;17.25;;;9.00;99.90;;;;;;5095395;28;20039;-89
2022/12/21 11:12:25;;;;;;;42.63;18.02;;;9.10;99.90;;;;;;5094710;27;20036;-89
2022/12/21 11:14:52;;;;;;;43.38;19.23;;;9.10;99.90;;;;;;5114779;27;20072;-89
2022/12/21 11:17:27;;;;;;;47.30;19.00;;;9.10;99.90;;;;;;5114190;27;20035;-90
2022/12/21 11:20:06;;;;;;;44.65;19.30;;;9.20;99.90;;;;;;5106406;28;20114;-89
2022/12/21 11:22:33;;;;;;;43.45;18.77;;;9.20;99.90;;;;;;5095485;27;20409;-89
2022/12/21 11:25:00;;;;;;;44.78;18.52;;;9.20;99.90;;;;;;5110370;28;20093;-89
2022/12/21 11:27:28;;;;;;;40.70;18.27;;;9.10;99.90;;;;;;5113398;28;20046;-90
2022/12/21 11:29:59;;;;;;;53.65;20.95;;;9.10;99.90;;;;;;5105321;27;20039;-90
2022/12/21 11:32:28;;;;;;;40.78;18.65;;;9.00;99.90;;;;;;5138543;27;20369;-90
2022/12/21 11:35:00;;;;;;;50.92;18.38;;;9.00;99.90;;;;;;5112712;27;20116;-90
2022/12/21 11:37:36;;;;;;;41.92;18.70;;;9.00;99.90;;;;;;5100164;28;20036;-90
2022/12/21 11:40:11;;;;;;;46.42;20.08;;;9.10;99.90;;;;;;5094456;28;20046;-90
2022/12/21 11:43:16;;;;;;;45.03;19.15;;;9.20;99.90;;;;;;5120712;27;20148;-90
2022/12/21 11:45:47;;;;;;;48.55;20.95;;;9.30;99.90;;;;;;5082658;27;20047;-89
2022/12/21 11:48:19;;;;;;;46.67;19.27;;;9.40;99.90;;;;;;5110160;28;20038;-89
2022/12/21 11:51:07;;;;;;;48.40;21.80;;;9.50;99.90;;;;;;5094351;28;20455;-89
2022/12/21 11:54:10;;;;;;;48.17;19.52;;;9.60;99.90;;;;;;5103248;27;20039;-90
2022/12/21 11:56:45;;;;;;;;;;;9.90;99.90;;;;;;5114312;27;20416;-89
2022/12/21 11:59:13;;;;;;;46.15;18.77;;;10.10;99.90;;;;;;5110606;28;19920;-93
2022/12/21 12:02:14;;;;;;;43.65;20.15;;;10.40;99.90;;;;;;5109350;27;20086;-91
2022/12/21 12:05:12;;;;;;;43.25;19.50;;;10.90;99.90;;;;;;5114326;27;20055;-90
2022/12/21 12:07:54;;;;;;;43.28;20.45;;;11.00;99.90;;;;;;5133397;27;20047;-91
2022/12/21 12:10:35;;;;;;;50.90;20.23;;;11.30;99.90;;;;;;5114482;27;20089;-90
2022/12/21 12:13:37;;;;;;;43.95;22.35;;;11.40;99.90;;;;;;5111631;27;20039;-90
2022/12/21 12:16:32;;;;;;;41.85;19.38;;;11.60;99.90;;;;;;5093451;28;20050;-90
2022/12/21 12:19:14;;;;;;;42.58;19.38;;;12.00;99.90;;;;;;5093413;28;20047;-90
2022/12/21 12:21:51;;;;;;;36.63;20.20;;;12.40;99.90;;;;;;5111805;28;20074;-90
2022/12/21 12:24:38;;;;;;;48.10;20.42;;;12.30;99.90;;;;;;5120874;27;20513;-89
2022/12/21 12:27:31;;;;;;;47.28;33.58;;;11.90;99.90;;;;;;5116858;27;20400;-92
2022/12/21 12:29:57;;;;;;;42.75;18.02;;;11.50;99.90;;;;;;5099806;28;20039;-90
2022/12/21 12:32:48;;;;;;;37.78;18.90;;;11.30;99.90;;;;;;5104923;27;20039;-90
2022/12/21 12:35:34;;;;;;;36.03;20.08;;;11.50;99.90;;;;;;5103897;27;20502;-89
2022/12/21 12:38:23;;;;;;;39.17;20.13;;;11.90;99.90;;;;;;5076665;28;20079;-90
2022/12/21 12:41:15;;;;;;;34.70;17.98;;;12.60;99.90;;;;;;5115410;27;20050;-90
2022/12/21 12:44:04;;;;;;;29.95;15.13;;;13.10;99.90;;;;;;5116970;27;20043;-90
2022/12/21 12:46:33;;;;;;;36.65;27.65;;;13.00;99.90;;;;;;5141345;27;20035;-91
2022/12/21 12:49:25;;;;;;;39.00;27.98;;;12.70;99.90;;;;;;5121678;27;20066;-90
2022/12/21 12:52:02;;;;;;;30.80;15.45;;;12.20;99.90;;;;;;5134707;27;20593;-90
2022/12/21 12:54:45;;;;;;;32.05;16.35;;;11.70;99.90;;;;;;5104083;27;20501;-89
2022/12/21 12:57:34;;;;;;;37.63;17.70;;;11.20;99.90;;;;;;5097843;28;20051;-89
2022/12/21 13:00:09;;;;;;;35.45;18.88;;;11.00;99.90;;;;;;5104196;27;20396;-90
2022/12/21 13:03:02;;;;;;;38.28;29.27;;;11.10;99.90;;;;;;5113148;27;20039;-90
2022/12/21 13:06:02;;;;;;;35.85;27.38;;;11.40;99.90;;;;;;5110827;28;20131;-90
2022/12/21 13:08:46;;;;;;;37.42;16.30;;;11.60;99.90;;;;;;5092285;28;20089;-89
2022/12/21 13:11:43;;;;;;;32.53;17.65;;;11.60;99.90;;;;;;5105179;27;20043;-89
2022/12/21 13:14:23;;;;;;;36.85;18.30;;;11.60;99.90;;;;;;5130849;27;20046;-90